sensor_id;sensor_type;location;lat;lon;timestamp;temperature;humidity
15481;DHT22;7842;50.904;6.670;2023-09-07T00:00:13;18.40;99.90
15481;DHT22;7842;50.904;6.670;2023-09-07T00:02:39;18.20;99.90
15481;DHT22;7842;50.904;6.670;2023-09-07T00:05:06;18.10;99.90
15481;DHT22;7842;50.904;6.670;2023-09-07T00:34:25;17.60;99.90
15481;DHT22;7842;50.904;6.670;2023-09-07T00:36:51;17.60;99.90
15481;DHT22;7842;50.904;6.670;2023-09-07T00:39:16;17.70;99.90
15481;DHT22;7842;50.904;6.670;2023-09-07T00:41:42;17.60;99.90
15481;DHT22;7842;50.904;6.670;2023-09-07T00:44:07;17.70;99.90
15481;DHT22;7842;50.904;6.670;2023-09-07T00:46:33;17.80;99.90
15481;DHT22;7842;50.904;6.670;2023-09-07T00:48:59;17.60;99.90
15481;DHT22;7842;50.904;6.670;2023-09-07T00:51:25;17.60;99.90
15481;DHT22;7842;50.904;6.670;2023-09-07T01:30:28;17.10;99.90
15481;DHT22;7842;50.904;6.670;2023-09-07T01:32:54;16.90;99.90
15481;DHT22;7842;50.904;6.670;2023-09-07T01:35:20;17.10;99.90
15481;DHT22;7842;50.904;6.670;2023-09-07T01:37:48;16.90;99.90
15481;DHT22;7842;50.904;6.670;2023-09-07T01:40:13;16.90;99.90
15481;DHT22;7842;50.904;6.670;2023-09-07T01:47:33;16.80;99.90
15481;DHT22;7842;50.904;6.670;2023-09-07T01:49:58;16.90;99.90
15481;DHT22;7842;50.904;6.670;2023-09-07T01:52:24;16.80;99.90
15481;DHT22;7842;50.904;6.670;2023-09-07T01:54:49;17.00;99.90
15481;DHT22;7842;50.904;6.670;2023-09-07T01:57:16;17.00;99.90
15481;DHT22;7842;50.904;6.670;2023-09-07T01:59:41;16.90;99.90
15481;DHT22;7842;50.904;6.670;2023-09-07T02:02:07;16.90;99.90
15481;DHT22;7842;50.904;6.670;2023-09-07T02:04:33;16.90;99.90
15481;DHT22;7842;50.904;6.670;2023-09-07T02:06:58;16.90;99.90
15481;DHT22;7842;50.904;6.670;2023-09-07T02:09:24;16.90;99.90
15481;DHT22;7842;50.904;6.670;2023-09-07T02:11:50;16.90;99.90
15481;DHT22;7842;50.904;6.670;2023-09-07T11:24:48;27.40;99.90
15481;DHT22;7842;50.904;6.670;2023-09-07T11:27:16;27.50;99.90
15481;DHT22;7842;50.904;6.670;2023-09-07T11:29:42;27.50;99.90
15481;DHT22;7842;50.904;6.670;2023-09-07T11:32:09;27.30;99.90
15481;DHT22;7842;50.904;6.670;2023-09-07T11:34:35;27.40;99.90
15481;DHT22;7842;50.904;6.670;2023-09-07T11:37:02;27.30;99.90
15481;DHT22;7842;50.904;6.670;2023-09-07T11:39:29;27.30;99.90
15481;DHT22;7842;50.904;6.670;2023-09-07T11:41:54;27.40;99.90
15481;DHT22;7842;50.904;6.670;2023-09-07T11:44:20;27.50;99.90
15481;DHT22;7842;50.904;6.670;2023-09-07T11:49:12;27.60;99.90
15481;DHT22;7842;50.904;6.670;2023-09-07T11:51:39;27.50;99.90
15481;DHT22;7842;50.904;6.670;2023-09-07T11:54:04;27.50;99.90
15481;DHT22;7842;50.904;6.670;2023-09-07T11:56:30;27.60;99.90
15481;DHT22;7842;50.904;6.670;2023-09-07T11:58:57;27.60;99.90
15481;DHT22;7842;50.904;6.670;2023-09-07T12:01:23;27.70;99.90
15481;DHT22;7842;50.904;6.670;2023-09-07T12:03:48;27.80;99.90
15481;DHT22;7842;50.904;6.670;2023-09-07T12:06:14;27.90;99.90
15481;DHT22;7842;50.904;6.670;2023-09-07T12:08:42;27.80;99.90
15481;DHT22;7842;50.904;6.670;2023-09-07T12:11:08;27.80;99.90
15481;DHT22;7842;50.904;6.670;2023-09-07T12:13:34;27.90;99.90
15481;DHT22;7842;50.904;6.670;2023-09-07T12:15:59;27.90;99.90
15481;DHT22;7842;50.904;6.670;2023-09-07T12:18:27;28.00;99.90
15481;DHT22;7842;50.904;6.670;2023-09-07T12:20:53;28.00;99.90
15481;DHT22;7842;50.904;6.670;2023-09-07T12:23:19;28.00;99.90
15481;DHT22;7842;50.904;6.670;2023-09-07T12:25:45;28.10;99.90
15481;DHT22;7842;50.904;6.670;2023-09-07T12:28:16;28.20;99.90
15481;DHT22;7842;50.904;6.670;2023-09-07T12:30:42;28.30;99.90
15481;DHT22;7842;50.904;6.670;2023-09-07T12:33:10;28.40;99.90
15481;DHT22;7842;50.904;6.670;2023-09-07T12:35:36;28.50;99.90
15481;DHT22;7842;50.904;6.670;2023-09-07T12:38:01;28.60;99.90
15481;DHT22;7842;50.904;6.670;2023-09-07T12:40:28;28.70;99.90
15481;DHT22;7842;50.904;6.670;2023-09-07T12:42:54;28.70;99.90
15481;DHT22;7842;50.904;6.670;2023-09-07T12:45:20;28.60;99.90
15481;DHT22;7842;50.904;6.670;2023-09-07T12:47:45;28.60;99.90
15481;DHT22;7842;50.904;6.670;2023-09-07T12:50:11;28.70;99.90
15481;DHT22;7842;50.904;6.670;2023-09-07T12:55:05;28.70;99.90
15481;DHT22;7842;50.904;6.670;2023-09-07T12:57:31;28.70;99.90
15481;DHT22;7842;50.904;6.670;2023-09-07T12:59:56;28.80;99.90
15481;DHT22;7842;50.904;6.670;2023-09-07T13:02:22;28.80;99.90
15481;DHT22;7842;50.904;6.670;2023-09-07T13:04:48;28.80;99.90
15481;DHT22;7842;50.904;6.670;2023-09-07T13:07:13;28.80;99.90
15481;DHT22;7842;50.904;6.670;2023-09-07T13:09:42;28.80;99.90
15481;DHT22;7842;50.904;6.670;2023-09-07T13:12:08;28.90;99.90
15481;DHT22;7842;50.904;6.670;2023-09-07T13:14:33;29.00;99.90
15481;DHT22;7842;50.904;6.670;2023-09-07T13:16:59;28.90;99.90
15481;DHT22;7842;50.904;6.670;2023-09-07T13:19:25;29.00;99.90
15481;DHT22;7842;50.904;6.670;2023-09-07T13:21:51;29.00;99.90
15481;DHT22;7842;50.904;6.670;2023-09-07T13:24:16;29.10;99.90
15481;DHT22;7842;50.904;6.670;2023-09-07T13:26:46;29.30;99.90
15481;DHT22;7842;50.904;6.670;2023-09-07T13:36:30;29.30;99.90
15481;DHT22;7842;50.904;6.670;2023-09-07T13:38:56;29.20;99.90
15481;DHT22;7842;50.904;6.670;2023-09-07T13:41:23;29.20;99.90
15481;DHT22;7842;50.904;6.670;2023-09-07T13:43:48;29.30;99.90
15481;DHT22;7842;50.904;6.670;2023-09-07T13:46:14;29.20;99.90
15481;DHT22;7842;50.904;6.670;2023-09-07T13:48:40;29.30;99.90
15481;DHT22;7842;50.904;6.670;2023-09-07T13:53:32;29.40;99.90
15481;DHT22;7842;50.904;6.670;2023-09-07T13:58:24;29.30;99.90
15481;DHT22;7842;50.904;6.670;2023-09-07T14:00:50;29.40;99.90
15481;DHT22;7842;50.904;6.670;2023-09-07T14:03:16;29.50;99.90
15481;DHT22;7842;50.904;6.670;2023-09-07T14:05:42;29.50;99.90
15481;DHT22;7842;50.904;6.670;2023-09-07T14:08:08;29.60;99.90
15481;DHT22;7842;50.904;6.670;2023-09-07T14:10:33;29.60;99.90
15481;DHT22;7842;50.904;6.670;2023-09-07T14:12:59;29.50;99.90
15481;DHT22;7842;50.904;6.670;2023-09-07T14:15:25;29.50;99.90
15481;DHT22;7842;50.904;6.670;2023-09-07T14:17:50;29.50;99.90
15481;DHT22;7842;50.904;6.670;2023-09-07T14:20:16;29.50;99.90
15481;DHT22;7842;50.904;6.670;2023-09-07T14:22:42;29.60;99.90
15481;DHT22;7842;50.904;6.670;2023-09-07T14:25:08;29.60;99.90
15481;DHT22;7842;50.904;6.670;2023-09-07T14:27:33;29.60;99.90
15481;DHT22;7842;50.904;6.670;2023-09-07T14:29:59;29.50;99.90
15481;DHT22;7842;50.904;6.670;2023-09-07T14:32:25;29.50;99.90
15481;DHT22;7842;50.904;6.670;2023-09-07T14:34:50;29.60;99.90
15481;DHT22;7842;50.904;6.670;2023-09-07T14:37:16;29.60;99.90
15481;DHT22;7842;50.904;6.670;2023-09-07T14:39:42;29.60;99.90
15481;DHT22;7842;50.904;6.670;2023-09-07T14:42:13;29.70;99.90
15481;DHT22;7842;50.904;6.670;2023-09-07T14:44:42;29.70;99.90
15481;DHT22;7842;50.904;6.670;2023-09-07T14:47:08;29.70;99.90
15481;DHT22;7842;50.904;6.670;2023-09-07T14:49:35;29.70;99.90
15481;DHT22;7842;50.904;6.670;2023-09-07T14:52:01;29.80;99.90
15481;DHT22;7842;50.904;6.670;2023-09-07T14:54:26;29.80;99.90
15481;DHT22;7842;50.904;6.670;2023-09-07T14:56:52;29.80;99.90
15481;DHT22;7842;50.904;6.670;2023-09-07T14:59:18;29.80;99.90
15481;DHT22;7842;50.904;6.670;2023-09-07T15:01:43;29.70;99.90
15481;DHT22;7842;50.904;6.670;2023-09-07T15:04:09;29.70;99.90
15481;DHT22;7842;50.904;6.670;2023-09-07T15:06:35;29.70;99.90
15481;DHT22;7842;50.904;6.670;2023-09-07T15:09:02;29.80;99.90
15481;DHT22;7842;50.904;6.670;2023-09-07T15:11:29;29.80;99.90
15481;DHT22;7842;50.904;6.670;2023-09-07T15:13:55;29.70;99.90
15481;DHT22;7842;50.904;6.670;2023-09-07T15:16:21;29.70;99.90
15481;DHT22;7842;50.904;6.670;2023-09-07T15:18:48;29.60;99.90
15481;DHT22;7842;50.904;6.670;2023-09-07T15:21:17;29.70;99.90
15481;DHT22;7842;50.904;6.670;2023-09-07T15:23:43;29.70;99.90
15481;DHT22;7842;50.904;6.670;2023-09-07T15:26:08;29.70;99.90
15481;DHT22;7842;50.904;6.670;2023-09-07T15:28:37;29.70;99.90
15481;DHT22;7842;50.904;6.670;2023-09-07T15:31:03;29.80;99.90
15481;DHT22;7842;50.904;6.670;2023-09-07T15:33:29;29.90;99.90
15481;DHT22;7842;50.904;6.670;2023-09-07T15:35:55;29.80;99.90
15481;DHT22;7842;50.904;6.670;2023-09-07T15:38:21;29.80;99.90
15481;DHT22;7842;50.904;6.670;2023-09-07T15:40:48;29.70;99.90
15481;DHT22;7842;50.904;6.670;2023-09-07T15:43:14;29.70;99.90
15481;DHT22;7842;50.904;6.670;2023-09-07T15:45:39;29.70;99.90
15481;DHT22;7842;50.904;6.670;2023-09-07T15:48:06;29.70;99.90
15481;DHT22;7842;50.904;6.670;2023-09-07T15:50:32;29.70;99.90
15481;DHT22;7842;50.904;6.670;2023-09-07T15:52:59;29.70;99.90
15481;DHT22;7842;50.904;6.670;2023-09-07T15:55:25;29.60;99.90
15481;DHT22;7842;50.904;6.670;2023-09-07T15:57:50;29.70;99.90
15481;DHT22;7842;50.904;6.670;2023-09-07T16:00:16;29.60;99.90
15481;DHT22;7842;50.904;6.670;2023-09-07T16:02:43;29.60;99.90
15481;DHT22;7842;50.904;6.670;2023-09-07T16:05:09;29.40;99.90
15481;DHT22;7842;50.904;6.670;2023-09-07T16:07:35;29.40;99.90
15481;DHT22;7842;50.904;6.670;2023-09-07T16:10:01;29.40;99.90
15481;DHT22;7842;50.904;6.670;2023-09-07T16:12:26;29.50;99.90
15481;DHT22;7842;50.904;6.670;2023-09-07T16:14:52;29.50;99.90
15481;DHT22;7842;50.904;6.670;2023-09-07T16:17:18;29.40;99.90
15481;DHT22;7842;50.904;6.670;2023-09-07T16:19:43;29.40;99.90
15481;DHT22;7842;50.904;6.670;2023-09-07T16:22:09;29.30;99.90
15481;DHT22;7842;50.904;6.670;2023-09-07T16:24:35;29.20;99.90
15481;DHT22;7842;50.904;6.670;2023-09-07T16:27:01;29.20;99.90
15481;DHT22;7842;50.904;6.670;2023-09-07T16:29:27;29.20;99.90
15481;DHT22;7842;50.904;6.670;2023-09-07T16:31:53;29.30;99.90
15481;DHT22;7842;50.904;6.670;2023-09-07T16:34:18;29.30;99.90
15481;DHT22;7842;50.904;6.670;2023-09-07T16:36:44;29.20;99.90
15481;DHT22;7842;50.904;6.670;2023-09-07T16:39:10;29.20;99.90
15481;DHT22;7842;50.904;6.670;2023-09-07T16:41:36;29.10;99.90
15481;DHT22;7842;50.904;6.670;2023-09-07T16:44:02;29.10;99.90
15481;DHT22;7842;50.904;6.670;2023-09-07T16:46:28;29.00;99.90
15481;DHT22;7842;50.904;6.670;2023-09-07T16:48:53;28.90;99.90
15481;DHT22;7842;50.904;6.670;2023-09-07T16:51:19;28.80;99.90
15481;DHT22;7842;50.904;6.670;2023-09-07T16:53:47;28.80;99.90
15481;DHT22;7842;50.904;6.670;2023-09-07T16:56:13;28.70;99.90
15481;DHT22;7842;50.904;6.670;2023-09-07T16:58:42;28.60;99.90
15481;DHT22;7842;50.904;6.670;2023-09-07T17:01:11;28.60;99.90
15481;DHT22;7842;50.904;6.670;2023-09-07T17:03:37;28.50;99.90
15481;DHT22;7842;50.904;6.670;2023-09-07T17:06:02;28.50;99.90
15481;DHT22;7842;50.904;6.670;2023-09-07T17:08:28;28.40;99.90
15481;DHT22;7842;50.904;6.670;2023-09-07T17:10:54;28.40;99.90
15481;DHT22;7842;50.904;6.670;2023-09-07T17:13:19;28.30;99.90
15481;DHT22;7842;50.904;6.670;2023-09-07T17:15:51;28.20;99.90
15481;DHT22;7842;50.904;6.670;2023-09-07T17:18:17;28.10;99.90
15481;DHT22;7842;50.904;6.670;2023-09-07T17:20:43;28.00;99.90
15481;DHT22;7842;50.904;6.670;2023-09-07T17:23:08;28.00;99.90
15481;DHT22;7842;50.904;6.670;2023-09-07T17:25:35;27.80;99.90
15481;DHT22;7842;50.904;6.670;2023-09-07T17:28:02;27.70;99.90
15481;DHT22;7842;50.904;6.670;2023-09-07T17:30:28;27.60;99.90
15481;DHT22;7842;50.904;6.670;2023-09-07T17:32:54;27.50;99.90
15481;DHT22;7842;50.904;6.670;2023-09-07T17:35:22;27.40;99.90
15481;DHT22;7842;50.904;6.670;2023-09-07T17:37:48;27.30;99.90
15481;DHT22;7842;50.904;6.670;2023-09-07T17:40:15;27.30;99.90
15481;DHT22;7842;50.904;6.670;2023-09-07T17:42:42;27.20;99.90
15481;DHT22;7842;50.904;6.670;2023-09-07T17:45:08;27.10;99.90
15481;DHT22;7842;50.904;6.670;2023-09-07T17:47:34;27.00;99.90
15481;DHT22;7842;50.904;6.670;2023-09-07T17:49:59;26.90;99.90
15481;DHT22;7842;50.904;6.670;2023-09-07T17:52:25;26.80;99.90
15481;DHT22;7842;50.904;6.670;2023-09-07T17:54:51;26.70;99.90
15481;DHT22;7842;50.904;6.670;2023-09-07T17:57:18;26.60;99.90
15481;DHT22;7842;50.904;6.670;2023-09-07T17:59:44;26.50;99.90
15481;DHT22;7842;50.904;6.670;2023-09-07T18:02:23;26.40;99.90
15481;DHT22;7842;50.904;6.670;2023-09-07T18:04:51;26.30;99.90
15481;DHT22;7842;50.904;6.670;2023-09-07T18:07:18;26.30;99.90
15481;DHT22;7842;50.904;6.670;2023-09-07T18:09:44;26.20;99.90
15481;DHT22;7842;50.904;6.670;2023-09-07T18:12:10;26.10;99.90
15481;DHT22;7842;50.904;6.670;2023-09-07T18:14:36;26.00;99.90
15481;DHT22;7842;50.904;6.670;2023-09-07T18:17:03;25.90;99.90
15481;DHT22;7842;50.904;6.670;2023-09-07T18:19:29;25.80;99.90
15481;DHT22;7842;50.904;6.670;2023-09-07T18:21:55;25.80;99.90
15481;DHT22;7842;50.904;6.670;2023-09-07T18:24:21;25.70;99.90
15481;DHT22;7842;50.904;6.670;2023-09-07T18:26:46;25.60;99.90
15481;DHT22;7842;50.904;6.670;2023-09-07T18:29:13;25.60;99.90
15481;DHT22;7842;50.904;6.670;2023-09-07T18:31:39;25.50;99.90
15481;DHT22;7842;50.904;6.670;2023-09-07T18:34:05;25.50;99.90
15481;DHT22;7842;50.904;6.670;2023-09-07T18:36:30;25.40;99.90
15481;DHT22;7842;50.904;6.670;2023-09-07T18:38:56;25.40;99.90
15481;DHT22;7842;50.904;6.670;2023-09-07T18:41:22;25.30;99.90
15481;DHT22;7842;50.904;6.670;2023-09-07T18:43:47;25.20;99.90
15481;DHT22;7842;50.904;6.670;2023-09-07T18:46:13;25.20;99.90
15481;DHT22;7842;50.904;6.670;2023-09-07T18:48:39;25.10;99.90
15481;DHT22;7842;50.904;6.670;2023-09-07T18:51:07;25.10;99.90
15481;DHT22;7842;50.904;6.670;2023-09-07T18:53:34;25.10;99.90
15481;DHT22;7842;50.904;6.670;2023-09-07T18:56:01;25.00;99.90
15481;DHT22;7842;50.904;6.670;2023-09-07T18:58:27;25.00;99.90
15481;DHT22;7842;50.904;6.670;2023-09-07T19:00:53;24.90;99.90
15481;DHT22;7842;50.904;6.670;2023-09-07T19:03:19;24.90;99.90
15481;DHT22;7842;50.904;6.670;2023-09-07T19:05:44;24.80;99.90
15481;DHT22;7842;50.904;6.670;2023-09-07T19:08:10;24.80;99.90
15481;DHT22;7842;50.904;6.670;2023-09-07T19:10:37;24.70;99.90
15481;DHT22;7842;50.904;6.670;2023-09-07T19:13:02;24.60;99.90
15481;DHT22;7842;50.904;6.670;2023-09-07T19:15:28;24.60;99.90
15481;DHT22;7842;50.904;6.670;2023-09-07T19:17:54;24.60;99.90
15481;DHT22;7842;50.904;6.670;2023-09-07T19:20:19;24.60;99.90
15481;DHT22;7842;50.904;6.670;2023-09-07T19:22:45;24.50;99.90
15481;DHT22;7842;50.904;6.670;2023-09-07T19:25:11;24.50;99.90
15481;DHT22;7842;50.904;6.670;2023-09-07T19:27:37;24.30;99.90
15481;DHT22;7842;50.904;6.670;2023-09-07T19:30:06;24.30;99.90
15481;DHT22;7842;50.904;6.670;2023-09-07T19:32:33;24.30;99.90
15481;DHT22;7842;50.904;6.670;2023-09-07T19:34:59;24.20;99.90
15481;DHT22;7842;50.904;6.670;2023-09-07T19:37:24;24.20;99.90
15481;DHT22;7842;50.904;6.670;2023-09-07T19:39:50;24.10;99.90
15481;DHT22;7842;50.904;6.670;2023-09-07T19:42:16;24.10;99.90
15481;DHT22;7842;50.904;6.670;2023-09-07T19:44:42;24.00;99.90
15481;DHT22;7842;50.904;6.670;2023-09-07T19:47:08;24.00;99.90
15481;DHT22;7842;50.904;6.670;2023-09-07T19:49:35;24.00;99.90
15481;DHT22;7842;50.904;6.670;2023-09-07T19:52:01;23.90;99.90
15481;DHT22;7842;50.904;6.670;2023-09-07T19:54:26;23.90;99.90
15481;DHT22;7842;50.904;6.670;2023-09-07T19:56:52;23.90;99.90
15481;DHT22;7842;50.904;6.670;2023-09-07T19:59:18;23.80;99.90
15481;DHT22;7842;50.904;6.670;2023-09-07T20:02:04;23.80;99.90
15481;DHT22;7842;50.904;6.670;2023-09-07T20:04:29;23.70;99.90
15481;DHT22;7842;50.904;6.670;2023-09-07T20:06:55;23.60;99.90
15481;DHT22;7842;50.904;6.670;2023-09-07T20:09:21;23.60;99.90
15481;DHT22;7842;50.904;6.670;2023-09-07T20:11:48;23.50;99.90
15481;DHT22;7842;50.904;6.670;2023-09-07T20:14:14;23.50;99.90
15481;DHT22;7842;50.904;6.670;2023-09-07T20:16:40;23.50;99.90
15481;DHT22;7842;50.904;6.670;2023-09-07T20:19:07;23.40;99.90
15481;DHT22;7842;50.904;6.670;2023-09-07T20:21:32;23.40;99.90
15481;DHT22;7842;50.904;6.670;2023-09-07T20:26:24;23.30;99.90
15481;DHT22;7842;50.904;6.670;2023-09-07T20:28:50;23.20;99.90
15481;DHT22;7842;50.904;6.670;2023-09-07T20:31:18;23.20;99.90
15481;DHT22;7842;50.904;6.670;2023-09-07T20:33:44;23.20;99.90
15481;DHT22;7842;50.904;6.670;2023-09-07T20:36:10;23.10;99.90
15481;DHT22;7842;50.904;6.670;2023-09-07T20:38:36;23.10;99.90
15481;DHT22;7842;50.904;6.670;2023-09-07T20:41:02;23.10;99.90
15481;DHT22;7842;50.904;6.670;2023-09-07T20:43:29;23.00;99.90
15481;DHT22;7842;50.904;6.670;2023-09-07T20:45:58;23.00;99.90
15481;DHT22;7842;50.904;6.670;2023-09-07T20:48:26;22.90;99.90
15481;DHT22;7842;50.904;6.670;2023-09-07T20:50:52;22.90;99.90
15481;DHT22;7842;50.904;6.670;2023-09-07T20:53:20;22.80;99.90
15481;DHT22;7842;50.904;6.670;2023-09-07T20:55:47;22.80;99.90
15481;DHT22;7842;50.904;6.670;2023-09-07T20:58:13;22.80;99.90
15481;DHT22;7842;50.904;6.670;2023-09-07T21:00:39;22.80;99.90
15481;DHT22;7842;50.904;6.670;2023-09-07T21:03:05;22.80;99.90
15481;DHT22;7842;50.904;6.670;2023-09-07T21:05:31;22.80;99.90
15481;DHT22;7842;50.904;6.670;2023-09-07T21:07:56;22.80;99.90
15481;DHT22;7842;50.904;6.670;2023-09-07T21:10:22;22.70;99.90
15481;DHT22;7842;50.904;6.670;2023-09-07T21:12:48;22.70;99.90
15481;DHT22;7842;50.904;6.670;2023-09-07T21:15:14;22.60;99.90
15481;DHT22;7842;50.904;6.670;2023-09-07T21:17:44;22.60;99.90
15481;DHT22;7842;50.904;6.670;2023-09-07T21:20:10;22.50;99.90
15481;DHT22;7842;50.904;6.670;2023-09-07T21:22:37;22.50;99.90
15481;DHT22;7842;50.904;6.670;2023-09-07T21:25:03;22.40;99.90
15481;DHT22;7842;50.904;6.670;2023-09-07T21:27:28;22.40;99.90
15481;DHT22;7842;50.904;6.670;2023-09-07T21:29:54;22.30;99.90
15481;DHT22;7842;50.904;6.670;2023-09-07T21:32:20;22.30;99.90
15481;DHT22;7842;50.904;6.670;2023-09-07T21:34:45;22.30;99.90
15481;DHT22;7842;50.904;6.670;2023-09-07T21:37:11;22.20;99.90
15481;DHT22;7842;50.904;6.670;2023-09-07T21:39:37;22.10;99.90
15481;DHT22;7842;50.904;6.670;2023-09-07T21:42:03;22.00;99.90
15481;DHT22;7842;50.904;6.670;2023-09-07T21:44:29;21.90;99.90
15481;DHT22;7842;50.904;6.670;2023-09-07T21:46:55;21.80;99.90
15481;DHT22;7842;50.904;6.670;2023-09-07T21:49:21;21.70;99.90
15481;DHT22;7842;50.904;6.670;2023-09-07T21:51:48;21.70;99.90
15481;DHT22;7842;50.904;6.670;2023-09-07T21:54:14;21.60;99.90
15481;DHT22;7842;50.904;6.670;2023-09-07T21:56:40;21.60;99.90
15481;DHT22;7842;50.904;6.670;2023-09-07T21:59:07;21.60;99.90
15481;DHT22;7842;50.904;6.670;2023-09-07T22:01:35;21.50;99.90
15481;DHT22;7842;50.904;6.670;2023-09-07T22:04:02;21.50;99.90
15481;DHT22;7842;50.904;6.670;2023-09-07T22:06:28;21.40;99.90
15481;DHT22;7842;50.904;6.670;2023-09-07T22:08:54;21.40;99.90
15481;DHT22;7842;50.904;6.670;2023-09-07T22:11:20;21.30;99.90
15481;DHT22;7842;50.904;6.670;2023-09-07T22:13:46;21.30;99.90
15481;DHT22;7842;50.904;6.670;2023-09-07T22:16:12;21.20;99.90
15481;DHT22;7842;50.904;6.670;2023-09-07T22:18:38;21.10;99.90
15481;DHT22;7842;50.904;6.670;2023-09-07T22:21:04;21.00;99.90
15481;DHT22;7842;50.904;6.670;2023-09-07T22:23:30;21.00;99.90
15481;DHT22;7842;50.904;6.670;2023-09-07T22:25:56;20.90;99.90
15481;DHT22;7842;50.904;6.670;2023-09-07T22:28:22;20.80;99.90
15481;DHT22;7842;50.904;6.670;2023-09-07T22:30:48;20.80;99.90
15481;DHT22;7842;50.904;6.670;2023-09-07T22:33:14;20.80;99.90
15481;DHT22;7842;50.904;6.670;2023-09-07T22:35:40;20.70;99.90
15481;DHT22;7842;50.904;6.670;2023-09-07T22:38:06;20.50;99.90
15481;DHT22;7842;50.904;6.670;2023-09-07T22:40:33;20.40;99.90
15481;DHT22;7842;50.904;6.670;2023-09-07T22:43:00;20.30;99.90
15481;DHT22;7842;50.904;6.670;2023-09-07T22:45:35;20.20;99.90
15481;DHT22;7842;50.904;6.670;2023-09-07T22:48:02;20.00;99.90
15481;DHT22;7842;50.904;6.670;2023-09-07T22:50:28;20.00;99.90
15481;DHT22;7842;50.904;6.670;2023-09-07T22:52:54;19.90;99.90
15481;DHT22;7842;50.904;6.670;2023-09-07T22:55:42;19.80;99.90
15481;DHT22;7842;50.904;6.670;2023-09-07T22:58:09;19.90;99.90
15481;DHT22;7842;50.904;6.670;2023-09-07T23:00:36;19.70;99.90
15481;DHT22;7842;50.904;6.670;2023-09-07T23:03:02;19.70;99.90
15481;DHT22;7842;50.904;6.670;2023-09-07T23:05:28;19.70;99.90
15481;DHT22;7842;50.904;6.670;2023-09-07T23:07:54;19.60;99.90
15481;DHT22;7842;50.904;6.670;2023-09-07T23:10:20;19.40;99.90
15481;DHT22;7842;50.904;6.670;2023-09-07T23:12:46;19.40;99.90
15481;DHT22;7842;50.904;6.670;2023-09-07T23:15:12;19.30;99.90
15481;DHT22;7842;50.904;6.670;2023-09-07T23:17:38;19.30;99.90
15481;DHT22;7842;50.904;6.670;2023-09-07T23:20:04;19.30;99.90
15481;DHT22;7842;50.904;6.670;2023-09-07T23:22:30;19.30;99.90
15481;DHT22;7842;50.904;6.670;2023-09-07T23:24:56;19.20;99.90
15481;DHT22;7842;50.904;6.670;2023-09-07T23:27:22;19.20;99.90
15481;DHT22;7842;50.904;6.670;2023-09-07T23:29:48;19.20;99.90
15481;DHT22;7842;50.904;6.670;2023-09-07T23:32:14;19.00;99.90
15481;DHT22;7842;50.904;6.670;2023-09-07T23:34:40;19.00;99.90
15481;DHT22;7842;50.904;6.670;2023-09-07T23:37:06;19.10;99.90
15481;DHT22;7842;50.904;6.670;2023-09-07T23:39:33;19.20;99.90
15481;DHT22;7842;50.904;6.670;2023-09-07T23:41:59;19.20;99.90
15481;DHT22;7842;50.904;6.670;2023-09-07T23:44:25;19.30;99.90
15481;DHT22;7842;50.904;6.670;2023-09-07T23:46:51;19.20;99.90
15481;DHT22;7842;50.904;6.670;2023-09-07T23:49:16;19.20;99.90
15481;DHT22;7842;50.904;6.670;2023-09-07T23:51:42;19.20;99.90
15481;DHT22;7842;50.904;6.670;2023-09-07T23:54:08;19.10;99.90
15481;DHT22;7842;50.904;6.670;2023-09-07T23:56:33;19.30;99.90
15481;DHT22;7842;50.904;6.670;2023-09-07T23:58:59;19.30;99.90
